Aérodrome :
LOGIN :

S'inscrire | Disclaimer

   EN    FR    IT 

 










Légende :    VFR   VFR Marginal   IFR   IFR Intensif   IFR Très Intensif
Visi : 
Plafond : 
>= 8 km
>= 3000ft
5 à 8 km
1000 à 3000 ft
1500m à 5 km
500 à 1000 ft
800 à 1500m
200 à 500 ft
< 800m
< 200 ft
Symboles :   Orages  Brouillard  Fortes neiges  Fortes précipitations  Vent > 20 kt
SIGMETs :   Divers  Orages  Givrage  Turbulence  Onde Orograph.  Cendres Volcan.






- Altitude de l'aérodrome : 120 ft
- Code IATA : MME


EGNV - Durham Tees valley

DERNIER METAR :
  • 040820Z 32007KT 9999 FEW016 SCT036 10/05 Q1005

METARs EXPIRÉS :
  • 040750Z 31007KT 280V340 9999 FEW014 SCT040 10/05 Q1005
  • 040720Z 30007KT 260V330 9999 FEW020 SCT042 10/05 Q1005
  • 040650Z 27005KT 9999 FEW018 SCT038 09/06 Q1005
  • 040620Z 29005KT 9999 FEW018 SCT039 08/05 Q1005
  • 040550Z 32006KT 9999 SCT042 08/05 Q1006

TAF TAF EGNV
Valide du 04 à 06h jusqu'au 04 à 15h UTC


040623Z 0406/0415 30005KT 9999 SCT035
TEMPO 0409/0415 7000 SHRA BKN012
ATIS : +44 9012 018 111



MET'MAP, la Météo Aéronautique d'un coup d'oeil ! - Copyright ORBIFLY Décembre 2007 - Disclaimer

ORBIFLY MET'MAP TEAM :

Programmation & Développement : Alexandra Zaïnal
Sur une idée originale de : Baudouin d'Aumeries
Assistance à la programmation : Marc-Olivier Méhu
Soutien technique & logistique : Manuel Goepfert

Contact : metmap@orbifly.com




SOURCES & CREDITS :

   NOAA